Time;durP1;ratioP1;P1;durP2;ratioP2;P2;SDS_P1;SDS_P2;PMS_P1;PMS_P2;Temp;Humidity;BMP_temperature;BMP_pressure;BME280_temperature;BME280_humidity;BME280_pressure;Samples;Min_cycle;Max_cycle;Signal;HPM_P1;HPM_P2
2022/07/26 00:01:25;;;;;;;5.73;5.23;;;;;;;24.70;66.32;97336.69;5055181;28;20208;-23
2022/07/26 00:03:57;;;;;;;6.10;5.60;;;;;;;24.69;66.54;97335.81;5067512;28;20192;-23
2022/07/26 00:06:24;;;;;;;5.63;5.23;;;;;;;24.70;65.72;97331.56;5052967;28;20275;-21
2022/07/26 00:08:51;;;;;;;5.47;5.03;;;;;;;24.70;66.41;97334.13;5053559;28;20287;-22
2022/07/26 00:11:17;;;;;;;5.80;5.30;;;;;;;24.54;66.02;97311.59;5051288;28;20287;-22
2022/07/26 00:13:44;;;;;;;5.83;5.33;;;;;;;24.59;66.06;97317.66;5051897;28;20295;-22
2022/07/26 00:16:11;;;;;;;5.17;4.77;;;;;;;24.70;66.27;97329.88;5054789;28;20204;-23
2022/07/26 00:18:38;;;;;;;5.37;4.87;;;;;;;24.69;66.14;97315.25;5054458;28;20220;-23
2022/07/26 00:21:04;;;;;;;5.90;5.40;;;;;;;24.59;66.18;97297.09;5060084;28;20667;-23
2022/07/26 00:23:32;;;;;;;5.80;5.30;;;;;;;24.65;66.14;97313.50;5049907;28;20214;-23
2022/07/26 00:25:58;;;;;;;5.70;5.20;;;;;;;24.69;66.65;97322.97;5053667;28;20235;-22
2022/07/26 00:28:25;;;;;;;5.67;5.17;;;;;;;24.70;66.46;97317.00;5054865;28;20739;-23
2022/07/26 00:30:52;;;;;;;5.30;4.90;;;;;;;24.71;66.11;97323.00;5053227;28;20252;-23
2022/07/26 00:33:18;;;;;;;5.40;5.00;;;;;;;24.70;66.43;97319.59;5058757;28;20652;-22
2022/07/26 00:35:45;;;;;;;6.40;5.80;;;;;;;24.70;65.93;97317.00;5051222;28;20239;-23
2022/07/26 00:38:11;;;;;;;9.83;5.27;;;;;;;24.65;66.06;97307.50;5050967;28;20283;-22
2022/07/26 00:40:38;;;;;;;5.20;4.80;;;;;;;24.70;66.38;97314.44;5050829;28;20407;-23
2022/07/26 00:43:04;;;;;;;5.33;4.93;;;;;;;24.70;66.37;97311.88;5060757;28;20193;-22
2022/07/26 00:45:31;;;;;;;5.63;5.13;;;;;;;24.71;66.56;97317.84;5050832;28;20215;-22
2022/07/26 00:47:57;;;;;;;5.03;4.63;;;;;;;24.70;65.66;97309.31;5051458;28;20232;-22
2022/07/26 00:50:24;;;;;;;5.50;5.10;;;;;;;24.70;66.36;97314.44;5048218;28;20747;-22
2022/07/26 00:52:51;;;;;;;5.37;4.97;;;;;;;24.70;66.60;97306.72;5053465;28;20659;-23
2022/07/26 00:55:17;;;;;;;5.20;4.80;;;;;;;24.71;66.12;97308.44;5056286;28;20287;-24
2022/07/26 00:57:44;;;;;;;6.03;5.53;;;;;;;24.71;66.02;97311.03;5057196;28;20292;-23
2022/07/26 01:00:13;;;;;;;5.60;5.10;;;;;;;24.71;66.35;97302.44;5048921;28;20664;-23
2022/07/26 01:02:39;;;;;;;5.33;4.93;;;;;;;24.65;66.49;97292.94;5061382;28;20654;-22
2022/07/26 01:05:06;;;;;;;5.77;5.30;;;;;;;24.70;66.57;97301.59;5052401;28;20192;-23
2022/07/26 01:07:33;;;;;;;5.40;5.00;;;;;;;24.71;66.38;97299.88;5049417;28;20236;-23
2022/07/26 01:10:02;;;;;;;5.53;5.13;;;;;;;24.71;66.19;97297.28;5050659;28;21477;-23
2022/07/26 01:12:28;;;;;;;5.67;5.27;;;;;;;24.71;66.58;97297.28;5052138;28;20201;-21
2022/07/26 01:14:55;;;;;;;5.23;4.80;;;;;;;24.71;66.55;97305.88;5052105;28;20289;-23
2022/07/26 01:17:21;;;;;;;5.17;4.77;;;;;;;24.71;66.23;97294.72;5049042;28;20328;-22
2022/07/26 01:19:48;;;;;;;5.13;4.73;;;;;;;24.71;66.52;97299.88;5050594;28;20308;-23
2022/07/26 01:22:14;;;;;;;5.50;5.07;;;;;;;24.71;66.14;97289.59;5053864;28;20656;-23
2022/07/26 01:24:41;;;;;;;4.80;4.40;;;;;;;24.70;66.14;97278.47;5058432;28;20652;-23
2022/07/26 01:27:08;;;;;;;5.20;4.77;;;;;;;24.72;66.45;97283.63;5052884;28;20368;-23
2022/07/26 01:29:34;;;;;;;5.33;4.93;;;;;;;24.71;67.09;97274.16;5059263;28;20282;-22
2022/07/26 01:32:03;;;;;;;5.37;4.87;;;;;;;24.70;66.42;97269.88;5059193;28;20197;-22
2022/07/26 01:34:30;;;;;;;5.23;4.83;;;;;;;24.67;66.62;97270.72;5054462;28;20655;-22
2022/07/26 01:36:57;;;;;;;5.23;4.83;;;;;;;24.70;66.08;97278.47;5054684;28;20640;-22
2022/07/26 01:39:23;;;;;;;5.40;5.00;;;;;;;24.71;66.45;97274.16;5055280;28;20252;-22
2022/07/26 01:41:50;;;;;;;5.43;4.97;;;;;;;24.71;66.19;97281.88;5055796;28;20240;-23
2022/07/26 01:44:16;;;;;;;5.07;4.57;;;;;;;24.71;66.61;97284.44;5060907;28;20639;-23
2022/07/26 01:46:43;;;;;;;5.53;5.03;;;;;;;24.71;66.33;97285.31;5062541;28;20632;-22
2022/07/26 01:49:10;;;;;;;5.20;4.80;;;;;;;24.65;66.05;97267.25;5054631;28;20252;-22
2022/07/26 01:51:36;;;;;;;4.80;4.47;;;;;;;24.70;66.61;97273.31;5054063;28;20262;-23
2022/07/26 01:54:03;;;;;;;4.97;4.57;;;;;;;24.70;66.45;97278.47;5056255;28;20213;-23
2022/07/26 01:56:30;;;;;;;5.23;4.83;;;;;;;24.69;66.09;97271.56;5053266;28;20251;-21
2022/07/26 01:58:57;;;;;;;5.03;4.63;;;;;;;24.65;66.54;97264.69;5057316;28;20243;-23
2022/07/26 02:01:24;;;;;;;5.20;4.80;;;;;;;24.65;66.59;97266.38;5065415;28;20582;-24
2022/07/26 02:04:06;;;;;;;4.77;4.37;;;;;;;24.70;66.56;97270.75;5057209;28;20211;-22
2022/07/26 02:06:34;;;;;;;4.90;4.50;;;;;;;24.70;66.52;97255.34;5053937;28;20259;-22
2022/07/26 02:09:00;;;;;;;4.43;4.10;;;;;;;24.71;66.55;97254.47;5055559;28;20569;-22
2022/07/26 02:11:27;;;;;;;4.63;4.30;;;;;;;24.71;66.12;97251.91;5054113;28;20565;-23
2022/07/26 02:13:54;;;;;;;4.97;4.57;;;;;;;24.65;66.12;97244.13;5057925;28;20715;-23
2022/07/26 02:16:20;;;;;;;5.13;4.73;;;;;;;24.71;66.45;97243.31;5052925;28;20286;-23
2022/07/26 02:18:47;;;;;;;5.20;4.80;;;;;;;24.71;66.13;97248.47;5064222;28;20222;-22
2022/07/26 02:21:13;;;;;;;4.80;4.40;;;;;;;24.70;66.54;97250.19;5060649;28;20229;-23
2022/07/26 02:23:40;;;;;;;5.30;4.90;;;;;;;24.71;66.28;97248.47;5053588;28;20680;-23
2022/07/26 02:26:07;;;;;;;5.30;4.90;;;;;;;24.68;66.59;97245.84;5050796;28;20197;-22
2022/07/26 02:28:34;;;;;;;4.40;4.07;;;;;;;24.70;66.38;97249.31;5054361;28;20197;-23
2022/07/26 02:31:01;;;;;;;4.90;4.50;;;;;;;24.70;66.41;97263.03;5084750;22;20224;-31
2022/07/26 02:33:27;;;;;;;4.90;4.50;;;;;;;24.69;66.55;97253.59;5069183;28;20201;-31
2022/07/26 02:35:54;;;;;;;5.20;4.70;;;;;;;24.65;66.54;97259.53;5062781;28;20896;-31
2022/07/26 02:38:21;;;;;;;4.93;4.53;;;;;;;24.70;66.36;97263.03;5066770;28;20620;-31
2022/07/26 02:40:51;;;;;;;4.60;4.30;;;;;;;24.69;66.40;97261.28;5070807;28;20212;-32
2022/07/26 02:43:18;;;;;;;4.37;4.07;;;;;;;24.69;66.73;97261.28;5072454;28;20197;-31
2022/07/26 02:45:44;;;;;;;4.67;4.33;;;;;;;24.69;66.47;97269.00;5066416;28;20224;-31
2022/07/26 02:48:28;;;;;;;4.30;4.00;;;;;;;24.70;66.25;97267.31;5057402;28;20444;-31
2022/07/26 02:50:55;;;;;;;4.60;4.20;;;;;;;24.69;66.54;97265.59;5061230;28;20278;-31
2022/07/26 02:53:22;;;;;;;4.53;4.23;;;;;;;24.69;66.68;97269.00;5060863;28;20413;-31
2022/07/26 02:55:48;;;;;;;4.70;4.40;;;;;;;24.69;66.25;97261.28;5057356;28;20287;-31
2022/07/26 02:58:15;;;;;;;4.73;4.33;;;;;;;24.70;66.47;97269.88;5064756;28;20254;-31
2022/07/26 03:00:41;;;;;;;4.53;4.23;;;;;;;24.66;66.27;97263.81;5063576;28;20473;-31
2022/07/26 03:03:09;;;;;;;4.67;4.27;;;;;;;24.65;66.36;97274.09;5067329;28;20243;-31
2022/07/26 03:05:36;;;;;;;4.80;4.40;;;;;;;24.67;66.75;97264.69;5065732;28;20203;-31
2022/07/26 03:08:03;;;;;;;4.40;4.10;;;;;;;24.70;66.79;97277.59;5072636;28;20287;-31
2022/07/26 03:10:29;;;;;;;4.50;4.20;;;;;;;24.63;66.64;97268.88;5071238;28;20262;-31
2022/07/26 03:12:56;;;;;;;4.40;4.10;;;;;;;24.66;66.67;97281.81;5071156;28;20207;-31
2022/07/26 03:15:23;;;;;;;4.63;4.23;;;;;;;24.70;66.47;97272.44;5065474;28;20247;-31
2022/07/26 03:17:50;;;;;;;3.90;3.60;;;;;;;24.69;66.52;97266.44;5072711;28;20215;-31
2022/07/26 03:20:16;;;;;;;4.63;4.23;;;;;;;24.69;66.38;97265.59;5062139;28;20338;-31
2022/07/26 03:22:43;;;;;;;4.63;4.23;;;;;;;24.68;66.38;97282.72;5063864;28;20694;-31
2022/07/26 03:25:09;;;;;;;4.43;4.13;;;;;;;24.69;66.97;97293.84;5055406;28;20193;-31
2022/07/26 03:27:36;;;;;;;4.70;4.30;;;;;;;24.69;66.78;97287.00;5060049;28;20288;-31
2022/07/26 03:30:04;;;;;;;4.50;4.10;;;;;;;24.65;66.84;97287.81;5068763;28;20311;-31
2022/07/26 03:32:30;;;;;;;4.67;4.27;;;;;;;24.69;66.85;97288.72;5068054;28;20224;-32
2022/07/26 03:34:57;;;;;;;4.40;4.10;;;;;;;24.64;66.01;97286.06;5059339;28;20252;-31
2022/07/26 03:37:24;;;;;;;4.50;4.20;;;;;;;24.68;66.46;97295.56;5038521;28;20292;-31
2022/07/26 03:39:50;;;;;;;4.50;4.20;;;;;;;24.69;66.44;97299.00;5063848;28;20248;-31
2022/07/26 03:42:17;;;;;;;4.70;4.30;;;;;;;24.69;66.81;97289.56;5050127;28;20244;-31
2022/07/26 03:44:43;;;;;;;4.70;4.30;;;;;;;24.69;66.86;97299.84;5061642;28;20283;-31
2022/07/26 03:47:10;;;;;;;4.00;3.70;;;;;;;24.68;66.57;97293.00;5059604;28;20236;-31
2022/07/26 03:49:36;;;;;;;4.67;4.27;;;;;;;24.69;66.86;97291.28;5059693;28;20790;-31
2022/07/26 03:52:03;;;;;;;4.20;3.90;;;;;;;24.69;66.47;97299.00;5064131;28;20224;-31
2022/07/26 03:54:30;;;;;;;4.40;4.00;;;;;;;24.69;66.57;97299.00;5066255;28;20749;-31
2022/07/26 03:56:56;;;;;;;4.27;3.97;;;;;;;24.69;66.60;97307.56;5063969;28;20235;-31
2022/07/26 03:59:24;;;;;;;4.20;3.90;;;;;;;24.69;66.72;97309.28;5060591;28;20233;-31
2022/07/26 04:01:50;;;;;;;4.40;4.00;;;;;;;24.66;66.59;97299.81;5063805;28;20722;-31
2022/07/26 04:04:17;;;;;;;4.40;4.10;;;;;;;24.68;66.38;97303.25;5070466;28;21405;-32
2022/07/26 04:06:50;;;;;;;4.43;4.10;;;;;;;24.70;66.70;97313.56;5069781;28;20982;-31
2022/07/26 04:09:18;;;;;;;4.80;4.43;;;;;;;24.64;66.75;97296.34;5064706;28;20200;-31
2022/07/26 04:11:46;;;;;;;4.80;4.40;;;;;;;24.69;66.72;97306.72;5052545;28;20279;-31
2022/07/26 04:14:13;;;;;;;4.07;3.77;;;;;;;24.70;66.68;97314.44;5046759;28;20243;-31
2022/07/26 04:16:39;;;;;;;4.60;4.20;;;;;;;24.69;66.48;97315.25;5059290;28;20251;-31
2022/07/26 04:19:09;;;;;;;4.10;3.80;;;;;;;24.66;66.60;97307.50;5062872;28;20590;-31
2022/07/26 04:21:35;;;;;;;4.37;3.97;;;;;;;24.69;67.00;97317.00;5060558;28;20254;-31
2022/07/26 04:24:02;;;;;;;4.10;3.80;;;;;;;24.69;66.66;97320.41;5061778;28;20201;-31
2022/07/26 04:26:29;;;;;;;4.20;3.90;;;;;;;24.68;66.32;97313.53;5064983;28;20290;-31
2022/07/26 04:28:56;;;;;;;4.20;3.90;;;;;;;24.68;66.38;97313.53;5063758;28;20259;-31
2022/07/26 04:31:22;;;;;;;4.13;3.83;;;;;;;24.68;66.46;97320.38;5066955;28;20255;-32
2022/07/26 04:33:50;;;;;;;4.30;4.00;;;;;;;24.65;66.54;97310.94;5068178;28;20254;-32
2022/07/26 04:36:16;;;;;;;4.57;4.23;;;;;;;24.69;66.15;97312.69;5068819;28;20290;-32
2022/07/26 04:38:43;;;;;;;3.83;3.53;;;;;;;24.68;66.59;97315.25;5068949;28;20525;-31
2022/07/26 04:41:10;;;;;;;4.13;3.83;;;;;;;24.69;66.38;97311.84;5067598;28;20323;-31
2022/07/26 04:43:36;;;;;;;4.63;4.23;;;;;;;24.69;66.92;97317.00;5069593;28;20192;-32
2022/07/26 04:46:03;;;;;;;4.00;3.67;;;;;;;24.69;66.42;97311.84;5061487;28;20193;-31
2022/07/26 04:48:30;;;;;;;4.27;3.97;;;;;;;24.69;66.80;97322.13;5067386;28;20204;-32
2022/07/26 04:50:56;;;;;;;3.97;3.67;;;;;;;24.69;66.89;97314.41;5056853;28;20223;-31
2022/07/26 04:53:23;;;;;;;4.03;3.73;;;;;;;24.68;66.46;97310.09;5070235;28;20196;-31
2022/07/26 04:55:49;;;;;;;4.10;3.80;;;;;;;24.69;66.76;97317.00;5054852;28;20244;-31
2022/07/26 04:58:16;;;;;;;4.70;4.30;;;;;;;24.67;66.52;97313.53;5058329;28;20264;-31
2022/07/26 05:00:45;;;;;;;4.20;3.90;;;;;;;24.69;66.50;97322.97;5049286;28;20649;-31
2022/07/26 05:03:31;;;;;;;4.43;4.10;;;;;;;24.69;65.74;97320.41;5071218;28;20214;-33
2022/07/26 05:05:58;;;;;;;4.50;4.10;;;;;;;24.61;66.08;97311.72;5057487;28;20703;-31
2022/07/26 05:08:24;;;;;;;4.37;4.03;;;;;;;24.68;66.12;97326.41;5058193;28;20262;-31
2022/07/26 05:10:51;;;;;;;4.30;3.90;;;;;;;24.68;66.02;97328.97;5064560;28;20315;-31
2022/07/26 05:13:21;;;;;;;4.30;4.00;;;;;;;24.64;66.59;97334.88;5069664;28;20204;-31
2022/07/26 05:15:55;;;;;;;4.47;4.13;;;;;;;24.65;66.30;97320.34;5071644;28;20655;-31
2022/07/26 05:18:22;;;;;;;4.10;3.80;;;;;;;24.69;66.55;97330.69;5065392;28;20208;-31
2022/07/26 05:20:49;;;;;;;3.80;3.50;;;;;;;24.71;66.53;97328.13;5072937;28;20220;-31
2022/07/26 05:23:16;;;;;;;4.37;3.97;;;;;;;24.71;66.43;97326.44;5074864;28;20222;-31
2022/07/26 05:25:42;;;;;;;4.33;3.93;;;;;;;24.69;66.68;97334.97;5066776;28;20691;-31
2022/07/26 05:28:09;;;;;;;4.37;3.97;;;;;;;24.71;66.79;97336.72;5052957;28;20236;-31
2022/07/26 05:30:36;;;;;;;5.17;3.93;;;;;;;24.69;66.50;97332.41;5061075;28;20291;-31
2022/07/26 05:33:02;;;;;;;7.50;3.70;;;;;;;24.73;66.57;97339.31;5071119;28;20207;-31
2022/07/26 05:35:29;;;;;;;5.43;3.87;;;;;;;24.74;66.96;97341.03;5059891;28;20251;-31
2022/07/26 05:37:56;;;;;;;5.50;3.80;;;;;;;24.71;66.75;97331.56;5065272;28;20271;-31
2022/07/26 05:40:22;;;;;;;5.80;3.90;;;;;;;24.73;67.10;97334.16;5054333;28;20320;-31
2022/07/26 05:42:49;;;;;;;5.07;4.07;;;;;;;24.74;66.93;97335.88;5073210;28;20231;-31
2022/07/26 05:45:15;;;;;;;4.93;3.90;;;;;;;24.74;66.81;97341.91;5071338;28;20237;-31
2022/07/26 05:47:42;;;;;;;4.03;3.70;;;;;;;24.75;66.92;97342.78;5065355;28;20656;-31
2022/07/26 05:50:09;;;;;;;4.57;3.80;;;;;;;24.71;66.63;97339.28;5070339;28;20659;-31
2022/07/26 05:52:35;;;;;;;4.37;3.97;;;;;;;24.71;67.11;97338.41;5069141;28;20230;-31
2022/07/26 05:55:02;;;;;;;3.80;3.33;;;;;;;24.59;66.47;97313.38;5068745;28;20249;-31
2022/07/26 05:57:29;;;;;;;4.43;4.03;;;;;;;24.73;65.93;97339.31;5062282;28;20236;-31
2022/07/26 05:59:55;;;;;;;4.23;3.93;;;;;;;24.74;65.86;97341.03;5067459;28;20248;-31
2022/07/26 06:02:22;;;;;;;4.83;3.90;;;;;;;24.73;66.45;97345.31;5065869;28;20232;-31
2022/07/26 06:04:49;;;;;;;4.40;3.70;;;;;;;24.73;66.66;97345.31;5069861;28;20196;-31
2022/07/26 06:07:15;;;;;;;5.00;3.37;;;;;;;24.73;66.62;97349.59;5060549;28;20284;-31
2022/07/26 06:09:42;;;;;;;4.33;3.90;;;;;;;24.70;66.60;97342.72;5068002;28;20631;-31
2022/07/26 06:12:08;;;;;;;11.87;3.93;;;;;;;24.73;66.85;97347.03;5071340;28;20295;-32
2022/07/26 06:14:35;;;;;;;3.87;3.57;;;;;;;24.72;66.70;97338.44;5072509;28;20661;-31
2022/07/26 06:17:03;;;;;;;6.60;3.70;;;;;;;24.72;66.44;97340.16;5067046;28;20227;-31
2022/07/26 06:19:30;;;;;;;11.63;3.77;;;;;;;24.69;66.63;97335.81;5070397;28;20221;-32
2022/07/26 06:21:56;;;;;;;4.30;3.90;;;;;;;24.72;66.74;97338.44;5068102;28;20295;-31
2022/07/26 06:24:23;;;;;;;4.13;3.73;;;;;;;24.72;66.92;97338.44;5066198;28;20269;-31
2022/07/26 06:26:52;;;;;;;4.07;3.50;;;;;;;24.69;66.28;97340.13;5069600;28;20263;-31
2022/07/26 06:29:23;;;;;;;5.07;3.70;;;;;;;24.68;66.85;97341.81;5070414;28;20223;-32
2022/07/26 06:31:57;;;;;;;4.07;3.67;;;;;;;24.72;66.36;97351.28;5069479;28;20195;-31
2022/07/26 06:34:24;;;;;;;4.80;4.00;;;;;;;24.73;66.52;97350.47;5066922;28;20574;-31
2022/07/26 06:36:51;;;;;;;6.17;4.20;;;;;;;24.74;66.47;97351.31;5068864;28;20279;-31
2022/07/26 06:39:17;;;;;;;4.70;3.50;;;;;;;24.74;66.42;97357.31;5061348;28;20246;-31
2022/07/26 06:41:44;;;;;;;3.63;3.33;;;;;;;24.75;66.57;97358.19;5067161;28;20196;-31
2022/07/26 06:44:10;;;;;;;4.00;3.60;;;;;;;24.74;66.77;97359.88;5065808;28;20220;-31
2022/07/26 06:46:37;;;;;;;3.90;3.50;;;;;;;24.70;67.02;97354.69;5070174;28;20188;-31
2022/07/26 06:49:04;;;;;;;4.87;3.30;;;;;;;24.75;66.87;97360.75;5052572;28;20204;-31
2022/07/26 06:51:32;;;;;;;4.00;3.70;;;;;;;24.75;67.04;97371.88;5070353;28;20259;-31
2022/07/26 06:53:59;;;;;;;4.33;3.97;;;;;;;24.70;66.62;97354.69;5069420;28;20303;-31
2022/07/26 06:56:26;;;;;;;4.00;3.70;;;;;;;24.69;66.79;97353.81;5069070;28;20224;-31
2022/07/26 06:58:54;;;;;;;4.00;3.60;;;;;;;24.71;66.67;97358.97;5048717;28;20572;-31
2022/07/26 07:01:21;;;;;;;3.80;3.33;;;;;;;24.73;66.49;97360.75;5067442;28;20243;-31
2022/07/26 07:04:07;;;;;;;3.40;3.10;;;;;;;24.73;66.31;97360.75;5070333;28;20596;-31
2022/07/26 07:06:35;;;;;;;3.97;3.57;;;;;;;24.74;66.80;97356.44;5064906;28;20224;-31
2022/07/26 07:09:01;;;;;;;3.67;3.23;;;;;;;24.71;66.86;97349.56;5060520;28;20193;-31
2022/07/26 07:11:28;;;;;;;3.60;3.20;;;;;;;24.74;66.40;97348.75;5064464;28;20232;-31
2022/07/26 07:13:55;;;;;;;4.53;3.60;;;;;;;24.73;66.67;97350.47;5062882;28;20230;-31
2022/07/26 07:16:21;;;;;;;4.10;3.70;;;;;;;24.75;66.32;97356.47;5053500;28;20270;-31
2022/07/26 07:18:50;;;;;;;3.50;3.20;;;;;;;24.74;66.82;97359.88;5055382;28;20207;-31
2022/07/26 07:21:16;;;;;;;4.00;3.60;;;;;;;24.74;66.42;97365.03;5059471;28;20249;-31
2022/07/26 07:23:43;;;;;;;3.67;3.37;;;;;;;24.75;65.98;97368.47;5063769;28;20228;-31
2022/07/26 07:26:09;;;;;;;4.27;3.47;;;;;;;24.62;66.46;97349.41;5066158;28;20235;-31
2022/07/26 07:28:39;;;;;;;3.97;3.47;;;;;;;24.72;66.52;97363.28;5056659;28;20204;-31
2022/07/26 07:31:05;;;;;;;3.97;3.60;;;;;;;24.73;66.31;97360.75;5056406;28;20233;-31
2022/07/26 07:33:34;;;;;;;4.23;3.53;;;;;;;24.72;66.31;97364.13;5071938;28;20200;-31
2022/07/26 07:36:18;;;;;;;3.50;3.20;;;;;;;24.73;66.17;97365.00;5062079;28;20423;-31
2022/07/26 07:38:45;;;;;;;4.23;3.60;;;;;;;24.73;66.62;97372.72;5060513;28;20231;-31
2022/07/26 07:41:11;;;;;;;4.50;3.83;;;;;;;24.73;66.57;97370.16;5060392;28;20259;-31
2022/07/26 07:43:38;;;;;;;3.80;3.33;;;;;;;24.73;66.53;97370.16;5068937;28;20235;-31
2022/07/26 07:46:05;;;;;;;3.53;3.23;;;;;;;24.69;66.89;97363.25;5059435;28;20629;-31
2022/07/26 07:48:31;;;;;;;5.27;3.50;;;;;;;24.71;66.64;97364.13;5064039;28;20201;-31
2022/07/26 07:50:58;;;;;;;3.50;3.20;;;;;;;24.70;66.64;97364.97;5035657;28;20757;-31
2022/07/26 07:53:25;;;;;;;3.83;3.53;;;;;;;24.71;66.34;97365.00;5064971;28;20557;-31
2022/07/26 07:55:51;;;;;;;4.20;3.10;;;;;;;24.70;66.44;97367.53;5067745;28;20338;-31
2022/07/26 07:58:20;;;;;;;3.20;3.00;;;;;;;24.71;66.30;97358.97;5059888;28;20212;-31
2022/07/26 08:00:47;;;;;;;4.00;3.10;;;;;;;24.72;66.62;97361.56;5068872;28;20262;-31
2022/07/26 08:03:14;;;;;;;3.40;3.10;;;;;;;24.72;66.83;97359.00;5065073;28;20205;-32
2022/07/26 08:05:45;;;;;;;4.53;3.83;;;;;;;24.71;66.44;97362.41;5061586;28;20745;-31
2022/07/26 08:08:15;;;;;;;3.40;3.10;;;;;;;24.71;66.98;97364.13;5058315;28;20220;-31
2022/07/26 08:10:42;;;;;;;4.07;3.63;;;;;;;24.72;66.61;97363.28;5066510;28;21134;-31
2022/07/26 08:13:18;;;;;;;3.60;3.30;;;;;;;24.70;66.87;97358.13;5066382;28;20211;-31
2022/07/26 08:15:47;;;;;;;3.47;3.17;;;;;;;24.71;67.03;97364.13;5069203;28;20219;-31
2022/07/26 08:18:15;;;;;;;3.00;2.80;;;;;;;24.71;67.17;97365.00;5068225;28;20729;-31
2022/07/26 08:20:44;;;;;;;3.30;3.00;;;;;;;24.72;66.60;97371.00;5065658;28;20237;-31
2022/07/26 08:23:11;;;;;;;3.57;3.27;;;;;;;24.72;66.82;97360.72;5064190;28;20333;-31
2022/07/26 08:25:38;;;;;;;3.57;3.20;;;;;;;24.72;66.73;97366.72;5042955;28;20229;-31
2022/07/26 08:28:21;;;;;;;3.50;3.20;;;;;;;24.73;66.88;97365.88;5053748;28;20683;-31
2022/07/26 08:31:07;;;;;;;3.30;3.10;;;;;;;24.74;66.57;97374.44;5094222;22;20227;-21
2022/07/26 08:33:34;;;;;;;3.50;3.20;;;;;;;24.73;66.80;97368.47;5085281;28;20199;-20
2022/07/26 08:36:06;;;;;;;3.60;3.30;;;;;;;24.71;67.01;97362.41;5078744;28;20293;-21
2022/07/26 08:38:32;;;;;;;3.33;3.03;;;;;;;24.75;67.02;97376.19;5089524;28;20745;-21
2022/07/26 08:40:59;;;;;;;3.63;3.10;;;;;;;24.74;66.39;97375.31;5083377;28;20320;-21
2022/07/26 08:43:25;;;;;;;3.47;3.17;;;;;;;24.75;67.10;97374.47;5082624;28;20276;-21
2022/07/26 08:45:56;;;;;;;4.80;3.40;;;;;;;24.74;67.12;97377.88;5079697;28;20223;-21
2022/07/26 08:48:23;;;;;;;3.43;3.13;;;;;;;24.74;66.63;97366.72;5085729;28;20476;-21
2022/07/26 08:50:49;;;;;;;4.40;3.30;;;;;;;24.50;67.08;97331.25;5084896;28;20250;-21
2022/07/26 08:53:16;;;;;;;3.47;3.17;;;;;;;24.75;67.15;97371.03;5060168;28;20290;-21
2022/07/26 08:55:42;;;;;;;3.23;2.93;;;;;;;24.75;66.75;97373.63;5083632;28;20659;-21
2022/07/26 08:58:34;;;;;;;3.40;3.10;;;;;;;24.74;66.51;97377.88;5084010;28;20207;-21
2022/07/26 09:01:11;;;;;;;3.63;3.23;;;;;;;24.76;67.16;97378.78;5087045;28;20278;-21
2022/07/26 09:03:38;;;;;;;3.40;3.10;;;;;;;24.76;67.38;97372.75;5086766;28;20226;-20
2022/07/26 09:06:11;;;;;;;3.60;3.30;;;;;;;24.76;67.02;97378.78;5085227;28;20191;-21
2022/07/26 09:08:38;;;;;;;3.87;3.43;;;;;;;24.76;67.33;97368.50;5084507;28;20742;-21
2022/07/26 09:11:22;;;;;;;3.83;3.03;;;;;;;24.76;67.03;97373.63;5086918;28;20250;-21
2022/07/26 09:13:59;;;;;;;3.17;2.87;;;;;;;24.76;67.18;97373.63;5086695;28;20620;-21
2022/07/26 09:16:26;;;;;;;3.30;3.00;;;;;;;24.76;67.08;97373.63;5087880;28;20342;-21
2022/07/26 09:18:53;;;;;;;3.77;3.20;;;;;;;24.77;66.93;97377.94;5085602;28;20199;-21
2022/07/26 09:21:27;;;;;;;3.87;3.10;;;;;;;24.77;67.35;97380.50;5089014;28;20311;-21
2022/07/26 09:23:54;;;;;;;3.40;3.10;;;;;;;24.77;67.17;97380.50;5080934;28;20240;-21
2022/07/26 09:26:22;;;;;;;3.10;2.80;;;;;;;24.74;67.05;97383.03;5084738;28;20662;-21
2022/07/26 09:29:09;;;;;;;3.47;2.90;;;;;;;24.76;66.61;97386.50;5085723;28;20283;-21
2022/07/26 09:31:37;;;;;;;3.47;3.10;;;;;;;24.76;66.98;97383.91;5085513;28;20292;-21
2022/07/26 09:34:04;;;;;;;3.37;3.07;;;;;;;24.77;66.98;97382.19;5081122;28;20207;-21
2022/07/26 09:36:31;;;;;;;3.50;3.13;;;;;;;24.77;67.69;97383.06;5077242;28;20219;-21
2022/07/26 09:39:02;;;;;;;3.07;2.80;;;;;;;24.78;67.26;97374.50;5076849;28;20263;-21
2022/07/26 09:41:30;;;;;;;3.80;3.17;;;;;;;24.79;67.32;97380.53;5086861;28;20310;-21
2022/07/26 09:43:59;;;;;;;3.13;2.90;;;;;;;24.79;67.27;97377.94;5074633;28;20235;-21
2022/07/26 09:46:26;;;;;;;4.00;3.37;;;;;;;24.79;67.34;97370.25;5079750;28;20678;-21
2022/07/26 09:48:59;;;;;;;3.30;3.00;;;;;;;24.79;66.88;97376.25;5085234;28;20204;-21
2022/07/26 09:51:39;;;;;;;3.20;2.90;;;;;;;24.77;67.09;97371.91;5085335;28;20600;-20
2022/07/26 09:54:06;;;;;;;6.20;3.17;;;;;;;24.79;66.96;97381.41;5087667;28;20196;-21
2022/07/26 09:56:44;;;;;;;3.30;3.00;;;;;;;24.79;66.95;97383.09;5086462;28;20693;-21
2022/07/26 09:59:12;;;;;;;4.27;3.20;;;;;;;24.78;66.83;97382.22;5084350;28;20307;-21
2022/07/26 10:01:39;;;;;;;4.17;3.07;;;;;;;24.70;67.13;97363.28;5087226;28;20277;-21
2022/07/26 10:04:06;;;;;;;3.77;3.20;;;;;;;24.79;67.28;97375.38;5085425;28;20204;-21
2022/07/26 10:06:33;;;;;;;3.77;3.00;;;;;;;24.78;67.11;97377.06;5087103;28;20204;-21
2022/07/26 10:09:00;;;;;;;3.43;3.00;;;;;;;24.79;66.83;97372.81;5085734;28;20227;-21
2022/07/26 10:11:28;;;;;;;4.70;3.20;;;;;;;24.79;66.97;97375.38;5087248;28;20274;-21
2022/07/26 10:13:56;;;;;;;3.87;3.47;;;;;;;24.79;66.79;97370.25;5086258;28;20200;-21
2022/07/26 10:16:30;;;;;;;3.70;3.40;;;;;;;24.79;66.94;97370.25;5079817;28;20311;-21
2022/07/26 10:18:58;;;;;;;5.57;3.37;;;;;;;23.03;66.74;97067.09;5082322;28;20196;-21
2022/07/26 10:21:29;;;;;;;3.70;3.40;;;;;;;24.80;66.92;97374.53;5084927;28;20228;-21
2022/07/26 10:23:59;;;;;;;4.27;3.10;;;;;;;24.79;66.81;97360.84;5085315;28;20674;-21
2022/07/26 10:26:32;;;;;;;4.50;3.60;;;;;;;24.79;66.84;97363.41;5089243;28;20434;-22
2022/07/26 10:29:14;;;;;;;4.43;3.70;;;;;;;24.79;66.96;97367.66;5084772;28;20268;-21
2022/07/26 10:31:41;;;;;;;4.83;3.87;;;;;;;24.79;67.02;97358.25;5089199;28;20304;-21
2022/07/26 10:34:08;;;;;;;4.80;3.80;;;;;;;24.71;67.10;97338.41;5089353;28;20207;-21
2022/07/26 10:36:38;;;;;;;6.13;3.83;;;;;;;24.79;67.03;97345.41;5086708;28;20576;-21
2022/07/26 10:39:09;;;;;;;7.47;4.07;;;;;;;24.79;66.48;97354.81;5083375;28;20643;-21
2022/07/26 10:41:41;;;;;;;6.10;4.00;;;;;;;24.79;66.88;97350.53;5089928;28;20289;-21
2022/07/26 10:44:11;;;;;;;4.77;3.60;;;;;;;24.80;66.67;97348.81;5087091;28;20638;-21
2022/07/26 10:47:00;;;;;;;10.63;4.07;;;;;;;24.81;66.50;97350.56;5087688;28;20225;-21
2022/07/26 10:49:28;;;;;;;6.37;4.30;;;;;;;24.81;66.74;97348.00;5089511;28;20290;-21
2022/07/26 10:52:17;;;;;;;6.40;4.57;;;;;;;24.81;66.82;97342.84;5087941;28;20302;-20
2022/07/26 10:54:56;;;;;;;7.83;4.50;;;;;;;24.81;67.01;97348.84;5085233;28;20227;-21
2022/07/26 10:57:23;;;;;;;8.67;5.17;;;;;;;24.81;67.10;97338.56;5082414;28;20794;-21
2022/07/26 10:59:50;;;;;;;11.13;5.30;;;;;;;24.81;66.00;97325.69;5084514;28;20233;-21
2022/07/26 11:02:25;;;;;;;9.97;5.17;;;;;;;24.81;67.01;97341.13;5085435;28;20203;-21
2022/07/26 11:05:12;;;;;;;10.57;5.80;;;;;;;24.82;66.67;97344.56;5084056;28;20728;-21
2022/07/26 11:08:03;;;;;;;8.43;5.30;;;;;;;24.81;66.93;97338.56;5084183;28;20196;-20
2022/07/26 11:10:40;;;;;;;7.97;4.90;;;;;;;24.82;66.99;97349.72;5084657;28;20794;-21
2022/07/26 11:13:14;;;;;;;9.57;5.17;;;;;;;24.81;66.91;97342.84;5082735;28;20227;-21
2022/07/26 11:15:45;;;;;;;12.90;5.60;;;;;;;24.79;66.77;97337.69;5086469;28;20662;-21
2022/07/26 11:18:13;;;;;;;10.60;5.63;;;;;;;24.81;67.08;97355.72;5085961;28;20216;-21
2022/07/26 11:20:40;;;;;;;7.60;4.90;;;;;;;24.80;67.20;97336.84;5083563;28;20259;-21
2022/07/26 11:23:26;;;;;;;11.10;5.63;;;;;;;24.80;66.79;97330.81;5085883;28;20272;-21
2022/07/26 11:26:05;;;;;;;11.57;6.00;;;;;;;24.81;66.99;97332.56;5085039;28;20242;-21
2022/07/26 11:28:42;;;;;;;11.87;5.30;;;;;;;24.80;66.84;97339.41;5085835;28;20238;-21
2022/07/26 11:31:12;;;;;;;11.90;6.00;;;;;;;24.80;66.82;97321.41;5078272;28;20230;-21
2022/07/26 11:33:41;;;;;;;11.03;5.83;;;;;;;24.80;66.90;97313.72;5087721;28;20207;-21
2022/07/26 11:36:08;;;;;;;11.30;5.33;;;;;;;24.80;67.25;97313.72;5078042;28;20254;-21
2022/07/26 11:38:51;;;;;;;11.27;5.67;;;;;;;24.80;66.85;97308.56;5082672;28;20290;-21
2022/07/26 11:41:21;;;;;;;9.83;5.37;;;;;;;24.81;67.20;97319.72;5074977;28;20247;-21